KMMH

Mammoth Yosemite Airport

Mammoth Lakes, California, USA
METAR KMMH 180815Z AUTO 00000KT 10SM CLR M02/M10 A3023 RMK AO2 T10211098 PWINO
Observed Flight Rules
Dec-18 @ 08:15 UTC (28 minutes ago) Visual Flight Rules
Wind Visibility Clouds
Calm 10 miles
  • Clear skies
Temperatures Readings
Current -2°C / 28°F
Dewpoint -10°C / 14°F
Humidity 55%
Altimeter 30.23" Hg
Pressure 1024 hPa
Elevation 2173
METAR KMMH 180815Z AUTO 00000KT 10SM CLR M02/M10 A3023 RMK AO2 T10211098 PWINO
Observed Flight Rules
Dec-18 @ 08:15 UTC
(28 minutes ago)
VFR
Wind Visibility
Calm 10 miles
Clouds
  • Clear skies
Temperature Dewpoint
-2°C / 28°F -10°C / 14°F
Humidity Altimeter Pressure
55% 30.23" Hg 1024 hPa